createdAt,value
2023-04-03T00:00:50.450Z,102238.88
2023-04-03T00:03:18.613Z,102245.44
2023-04-03T00:05:48.476Z,102242.75
2023-04-03T00:08:16.373Z,102241.59
2023-04-03T00:10:44.414Z,102243.47
2023-04-03T00:13:12.426Z,102235.28
2023-04-03T00:15:41.389Z,102241.66
2023-04-03T00:18:09.780Z,102242.09
2023-04-03T00:20:38.084Z,102236.09
2023-04-03T00:23:07.583Z,102241.78
2023-04-03T00:25:35.455Z,102236.13
2023-04-03T00:28:04.312Z,102242.38
2023-04-03T00:30:32.484Z,102238.50
2023-04-03T00:33:01.587Z,102242.38
2023-04-03T00:35:30.066Z,102237.97
2023-04-03T00:37:58.911Z,102238.44
2023-04-03T00:40:28.875Z,102248.13
2023-04-03T00:42:59.720Z,102249.31
2023-04-03T00:45:37.857Z,102258.34
2023-04-03T00:48:09.015Z,102248.06
2023-04-03T00:50:39.486Z,102242.72
2023-04-03T00:53:11.026Z,102246.69
2023-04-03T00:55:40.836Z,102243.06
2023-04-03T00:58:10.295Z,102242.94
2023-04-03T01:00:41.535Z,102244.03
2023-04-03T01:03:09.334Z,102229.03
2023-04-03T01:05:37.400Z,102230.00
2023-04-03T01:08:05.454Z,102230.91
2023-04-03T01:10:33.215Z,102232.25
2023-04-03T01:13:02.826Z,102233.03
2023-04-03T01:15:35.795Z,102231.56
2023-04-03T01:18:05.700Z,102226.25
2023-04-03T01:20:49.055Z,102217.97
2023-04-03T01:23:27.774Z,102216.16
2023-04-03T01:25:57.558Z,102217.59
2023-04-03T01:28:30.263Z,102211.31
2023-04-03T01:31:04.608Z,102207.03
2023-04-03T01:33:33.744Z,102203.34
2023-04-03T01:36:02.456Z,102205.41
2023-04-03T01:38:30.379Z,102208.31
2023-04-03T01:40:58.315Z,102204.38
2023-04-03T01:43:26.189Z,102200.69
2023-04-03T01:45:55.721Z,102199.19
2023-04-03T01:48:23.630Z,102194.94
2023-04-03T01:50:52.746Z,102190.56
2023-04-03T01:53:20.439Z,102195.53
2023-04-03T01:55:48.298Z,102192.31
2023-04-03T01:58:16.047Z,102190.16
2023-04-03T02:00:43.781Z,102192.16
2023-04-03T02:03:11.693Z,102186.03
2023-04-03T02:05:40.481Z,102184.75
2023-04-03T02:08:09.603Z,102181.19
2023-04-03T02:10:37.768Z,102180.25
2023-04-03T02:13:05.956Z,102183.78
2023-04-03T02:15:33.712Z,102179.81
2023-04-03T02:18:01.561Z,102187.22
2023-04-03T02:20:35.651Z,102178.47
2023-04-03T02:23:03.971Z,102185.91
2023-04-03T02:25:36.632Z,102173.53
2023-04-03T02:28:06.125Z,102181.50
2023-04-03T02:30:33.947Z,102180.00
2023-04-03T02:33:01.810Z,102176.03
2023-04-03T02:35:29.676Z,102172.94
2023-04-03T02:37:57.362Z,102179.63
2023-04-03T02:40:25.138Z,102175.56
2023-04-03T02:42:54.220Z,102173.06
2023-04-03T02:45:21.955Z,102166.75
2023-04-03T02:47:49.730Z,102162.31
2023-04-03T02:50:17.776Z,102167.91
2023-04-03T02:52:45.510Z,102169.69
2023-04-03T02:55:16.169Z,102170.31
2023-04-03T02:57:44.004Z,102169.84
2023-04-03T03:00:14.146Z,102164.91
2023-04-03T03:02:42.152Z,102157.88
2023-04-03T03:05:10.834Z,102154.44
2023-04-03T03:07:38.740Z,102166.38
2023-04-03T03:10:07.304Z,102161.63
2023-04-03T03:12:35.275Z,102167.69
2023-04-03T03:15:03.008Z,102171.19
2023-04-03T03:17:32.111Z,102169.88
2023-04-03T03:19:59.920Z,102177.63
2023-04-03T03:22:28.819Z,102180.22
2023-04-03T03:24:57.527Z,102172.50
2023-04-03T03:27:25.739Z,102169.59
2023-04-03T03:29:53.498Z,102176.03
2023-04-03T03:32:21.558Z,102167.31
2023-04-03T03:34:50.803Z,102160.50
2023-04-03T03:37:18.628Z,102171.50
2023-04-03T03:39:46.355Z,102162.44
2023-04-03T03:42:14.096Z,102155.19
2023-04-03T03:44:41.841Z,102161.25
2023-04-03T03:47:11.747Z,102151.41
2023-04-03T03:49:39.547Z,102156.25
2023-04-03T03:52:11.468Z,102156.81
2023-04-03T03:54:39.873Z,102149.66
2023-04-03T03:57:07.743Z,102156.25
2023-04-03T03:59:35.543Z,102157.31
2023-04-03T04:02:03.308Z,102155.00
2023-04-03T04:04:31.156Z,102154.00
2023-04-03T04:06:58.861Z,102159.50
2023-04-03T04:09:28.228Z,102164.88
2023-04-03T04:11:56.278Z,102169.72
2023-04-03T04:14:24.077Z,102165.38
2023-04-03T04:16:51.979Z,102157.72
2023-04-03T04:19:19.792Z,102165.16
2023-04-03T04:21:47.568Z,102163.72
2023-04-03T04:24:15.540Z,102164.63
2023-04-03T04:26:44.686Z,102166.56
2023-04-03T04:29:12.409Z,102174.59
2023-04-03T04:31:40.084Z,102175.91
2023-04-03T04:34:08.104Z,102170.13
2023-04-03T04:36:36.140Z,102173.09
2023-04-03T04:39:03.917Z,102161.69
2023-04-03T04:41:31.646Z,102160.44
2023-04-03T04:44:00.866Z,102162.53
2023-04-03T04:46:28.714Z,102163.44
2023-04-03T04:48:56.936Z,102161.50
2023-04-03T04:51:24.639Z,102164.00
2023-04-03T04:53:53.518Z,102157.72
2023-04-03T04:56:22.886Z,102158.53
2023-04-03T04:58:50.616Z,102168.84
2023-04-03T05:01:20.127Z,102168.19
2023-04-03T05:03:48.832Z,102165.41
2023-04-03T05:06:16.590Z,102157.72
2023-04-03T05:08:44.317Z,102163.59
2023-04-03T05:11:12.177Z,102166.81
2023-04-03T05:13:39.932Z,102166.16
2023-04-03T05:16:08.227Z,102168.91
2023-04-03T05:18:37.437Z,102166.28
2023-04-03T05:21:05.556Z,102165.59
2023-04-03T05:23:33.302Z,102171.81
2023-04-03T05:26:01.235Z,102168.75
2023-04-03T05:28:29.029Z,102180.91
2023-04-03T05:30:57.578Z,102178.28
2023-04-03T05:33:27.170Z,102173.56
2023-04-03T05:35:56.931Z,102168.16
2023-04-03T05:38:24.916Z,102171.06
2023-04-03T05:40:52.833Z,102159.69
2023-04-03T05:43:20.628Z,102162.53
2023-04-03T05:45:49.633Z,102163.78
2023-04-03T05:48:17.458Z,102167.78
2023-04-03T05:50:45.222Z,102156.91
2023-04-03T05:53:19.859Z,102146.91
2023-04-03T05:55:47.593Z,102150.28
2023-04-03T05:58:15.438Z,102157.19
2023-04-03T06:00:43.392Z,102157.84
2023-04-03T06:03:11.379Z,102158.38
2023-04-03T06:05:39.532Z,102158.69
2023-04-03T06:08:07.568Z,102153.94
2023-04-03T06:10:37.187Z,102152.13
2023-04-03T06:13:05.087Z,102149.22
2023-04-03T06:15:32.848Z,102148.16
2023-04-03T06:18:00.571Z,102151.03
2023-04-03T06:20:28.484Z,102146.53
2023-04-03T06:22:56.236Z,102139.53
2023-04-03T06:25:24.019Z,102142.56
2023-04-03T06:27:53.099Z,102140.06
2023-04-03T06:30:21.022Z,102142.84
2023-04-03T06:32:48.870Z,102147.56
2023-04-03T06:35:16.937Z,102151.66
2023-04-03T06:37:44.667Z,102150.97
2023-04-03T06:40:20.248Z,102146.94
2023-04-03T06:42:48.475Z,102151.16
2023-04-03T06:45:18.848Z,102158.69
2023-04-03T06:47:47.248Z,102156.34
2023-04-03T06:50:16.231Z,102163.59
2023-04-03T06:52:43.977Z,102163.78
2023-04-03T06:55:12.525Z,102154.06
2023-04-03T06:57:40.410Z,102164.59
2023-04-03T07:00:10.185Z,102166.97
2023-04-03T07:02:39.343Z,102170.28
2023-04-03T07:05:08.087Z,102168.13
2023-04-03T07:07:36.120Z,102166.72
2023-04-03T07:10:03.933Z,102169.84
2023-04-03T07:12:31.861Z,102166.38
2023-04-03T07:15:00.241Z,102167.25
2023-04-03T07:17:28.015Z,102163.59
2023-04-03T07:19:57.275Z,102164.22
2023-04-03T07:22:25.287Z,102165.66
2023-04-03T07:24:53.006Z,102162.44
2023-04-03T07:27:20.717Z,102159.78
2023-04-03T07:29:49.599Z,102161.69
2023-04-03T07:32:18.547Z,102160.16
2023-04-03T07:34:46.685Z,102161.38
2023-04-03T07:37:15.818Z,102161.28
2023-04-03T07:39:45.870Z,102157.03
2023-04-03T07:42:14.269Z,102154.69
2023-04-03T07:44:42.031Z,102152.75
2023-04-03T07:47:10.258Z,102158.81
2023-04-03T07:49:41.402Z,102150.28
2023-04-03T07:52:09.996Z,102154.91
2023-04-03T07:54:39.430Z,102154.53
2023-04-03T07:57:07.617Z,102152.44
2023-04-03T07:59:35.813Z,102156.66
2023-04-03T08:02:05.864Z,102160.25
2023-04-03T08:04:34.183Z,102155.06
2023-04-03T08:07:01.999Z,102165.31
2023-04-03T08:09:29.829Z,102153.13
2023-04-03T08:11:59.115Z,102164.75
2023-04-03T08:14:27.116Z,102166.19
2023-04-03T08:16:54.889Z,102171.97
2023-04-03T08:19:26.706Z,102166.00
2023-04-03T08:21:55.490Z,102178.81
2023-04-03T08:24:23.366Z,102172.50
2023-04-03T08:26:51.145Z,102172.16
2023-04-03T08:29:20.456Z,102172.59
2023-04-03T08:31:48.412Z,102177.13
2023-04-03T08:34:16.206Z,102172.56
2023-04-03T08:36:44.314Z,102172.47
2023-04-03T08:39:12.671Z,102167.47
2023-04-03T08:41:43.161Z,102168.94
2023-04-03T08:44:23.948Z,102167.53
2023-04-03T08:47:04.275Z,102164.06
2023-04-03T08:49:35.693Z,102162.13
2023-04-03T08:52:12.058Z,102167.88
2023-04-03T08:54:50.219Z,102170.28
2023-04-03T08:57:19.583Z,102170.63
2023-04-03T08:59:48.126Z,102166.19
2023-04-03T09:02:28.839Z,102160.59
2023-04-03T09:04:57.892Z,102164.22
2023-04-03T09:07:35.354Z,102166.72
2023-04-03T09:10:04.154Z,102166.00
2023-04-03T09:12:38.136Z,102160.25
2023-04-03T09:15:20.081Z,102164.72
2023-04-03T09:18:03.680Z,102154.88
2023-04-03T09:20:41.622Z,102155.38
2023-04-03T09:23:19.860Z,102152.34
2023-04-03T09:25:48.213Z,102158.94
2023-04-03T09:28:16.156Z,102150.88
2023-04-03T09:30:43.946Z,102151.94
2023-04-03T09:33:14.592Z,102147.78
2023-04-03T09:35:48.508Z,102151.41
2023-04-03T09:38:22.882Z,102143.19
2023-04-03T09:40:52.690Z,102147.13
2023-04-03T09:43:30.341Z,102137.25
2023-04-03T09:46:19.323Z,102129.78
2023-04-03T09:49:08.082Z,102133.28
2023-04-03T09:51:36.778Z,102143.41
2023-04-03T09:54:37.003Z,102141.69
2023-04-03T09:57:09.831Z,102136.84
2023-04-03T09:59:39.977Z,102130.66
2023-04-03T10:02:26.527Z,102128.22
2023-04-03T10:05:08.963Z,102129.53
2023-04-03T10:07:41.305Z,102129.78
2023-04-03T10:10:25.005Z,102130.63
2023-04-03T10:13:06.558Z,102134.38
2023-04-03T10:15:41.567Z,102130.94
2023-04-03T10:18:28.627Z,102128.34
2023-04-03T10:21:02.896Z,102129.06
2023-04-03T10:23:35.032Z,102131.53
2023-04-03T10:26:16.738Z,102124.06
2023-04-03T10:28:51.597Z,102126.06
2023-04-03T10:31:27.759Z,102129.75
2023-04-03T10:34:07.063Z,102130.44
2023-04-03T10:36:47.747Z,102132.63
2023-04-03T10:39:27.488Z,102124.28
2023-04-03T10:42:16.729Z,102127.03
2023-04-03T10:44:59.090Z,102125.09
2023-04-03T10:47:35.494Z,102124.47
2023-04-03T10:50:28.626Z,102111.72
2023-04-03T10:53:02.608Z,102114.78
2023-04-03T10:55:38.117Z,102116.81
2023-04-03T10:58:08.312Z,102107.69
2023-04-03T11:00:41.458Z,102110.47
2023-04-03T11:03:16.562Z,102105.00
2023-04-03T11:05:47.678Z,102104.06
2023-04-03T11:08:27.326Z,102099.97
2023-04-03T11:10:59.509Z,102104.81
2023-04-03T11:13:34.623Z,102099.78
2023-04-03T11:16:02.832Z,102095.66
2023-04-03T11:18:37.408Z,102085.47
2023-04-03T11:21:13.753Z,102090.09
2023-04-03T11:23:49.376Z,102077.13
2023-04-03T11:26:21.729Z,102078.59
2023-04-03T11:28:54.945Z,102083.56
2023-04-03T11:31:35.579Z,102079.06
2023-04-03T11:34:15.740Z,102076.06
2023-04-03T11:36:48.271Z,102066.94
2023-04-03T11:39:24.653Z,102069.00
2023-04-03T11:42:00.212Z,102058.03
2023-04-03T11:44:37.439Z,102045.94
2023-04-03T11:47:06.726Z,102050.31
2023-04-03T11:49:56.411Z,102041.03
2023-04-03T11:53:02.501Z,102034.50
2023-04-03T11:56:15.166Z,102028.13
2023-04-03T11:59:23.485Z,102031.53
2023-04-03T12:01:52.935Z,102031.97
2023-04-03T12:04:22.154Z,102025.72
2023-04-03T12:07:14.562Z,102023.75
2023-04-03T12:10:31.843Z,102023.25
2023-04-03T12:13:05.072Z,102022.13
2023-04-03T12:15:58.088Z,102025.41
2023-04-03T12:18:57.661Z,102012.47
2023-04-03T12:21:38.958Z,102014.88
2023-04-03T12:24:26.240Z,102008.41
2023-04-03T12:27:20.839Z,102005.69
2023-04-03T12:29:54.867Z,102003.88
2023-04-03T12:32:37.235Z,101995.84
2023-04-03T12:35:18.605Z,101994.81
2023-04-03T12:37:59.609Z,101991.81
2023-04-03T12:40:33.273Z,101995.34
2023-04-03T12:43:20.882Z,101985.63
2023-04-03T12:45:56.006Z,101987.44
2023-04-03T12:48:28.007Z,101983.47
2023-04-03T12:50:57.467Z,101981.22
2023-04-03T12:53:28.449Z,101978.75
2023-04-03T12:55:57.058Z,101971.84
2023-04-03T12:58:28.656Z,101967.91
2023-04-03T13:01:04.284Z,101967.09
2023-04-03T13:03:33.081Z,101965.84
2023-04-03T13:06:04.317Z,101956.31
2023-04-03T13:08:32.612Z,101951.59
2023-04-03T13:11:03.662Z,101953.41
2023-04-03T13:13:32.902Z,101949.81
2023-04-03T13:16:00.796Z,101953.78
2023-04-03T13:18:33.864Z,101944.72
2023-04-03T13:21:06.926Z,101950.00
2023-04-03T13:23:38.330Z,101944.16
2023-04-03T13:26:07.568Z,101941.72
2023-04-03T13:28:37.902Z,101945.41
2023-04-03T13:31:11.468Z,101938.94
2023-04-03T13:33:40.026Z,101941.31
2023-04-03T13:36:13.021Z,101929.41
2023-04-03T13:38:40.882Z,101919.16
2023-04-03T13:41:27.099Z,101927.28
2023-04-03T13:44:03.366Z,101919.84
2023-04-03T13:46:38.319Z,101907.91
2023-04-03T13:49:19.963Z,101917.41
2023-04-03T13:51:54.148Z,101912.81
2023-04-03T13:54:34.459Z,101910.13
2023-04-03T13:57:02.883Z,101911.31
2023-04-03T13:59:34.098Z,101906.88
2023-04-03T14:02:17.403Z,101899.66
2023-04-03T14:04:54.177Z,101897.13
2023-04-03T14:07:22.430Z,101897.41
2023-04-03T14:09:50.905Z,101887.09
2023-04-03T14:12:31.217Z,101882.00
2023-04-03T14:15:02.664Z,101880.94
2023-04-03T14:17:30.918Z,101879.13
2023-04-03T14:19:59.577Z,101877.38
2023-04-03T14:22:30.314Z,101879.09
2023-04-03T14:24:58.518Z,101870.78
2023-04-03T14:27:29.406Z,101878.59
2023-04-03T14:29:59.346Z,101877.16
2023-04-03T14:32:28.831Z,101866.44
2023-04-03T14:34:57.989Z,101873.38
2023-04-03T14:37:28.905Z,101859.13
2023-04-03T14:39:58.904Z,101855.88
2023-04-03T14:42:30.939Z,101860.16
2023-04-03T14:44:58.917Z,101858.06
2023-04-03T14:47:32.106Z,101841.31
2023-04-03T14:50:01.390Z,101847.38
2023-04-03T14:52:32.548Z,101854.16
2023-04-03T14:55:01.310Z,101838.56
2023-04-03T14:57:30.988Z,101846.69
2023-04-03T14:59:58.948Z,101835.38
2023-04-03T15:02:31.691Z,101834.38
2023-04-03T15:05:00.770Z,101834.66
2023-04-03T15:07:30.975Z,101832.03
2023-04-03T15:09:58.890Z,101835.50
2023-04-03T15:12:27.425Z,101823.59
2023-04-03T15:15:01.765Z,101823.03
2023-04-03T15:17:32.800Z,101812.75
2023-04-03T15:20:01.006Z,101806.41
2023-04-03T15:22:28.965Z,101806.94
2023-04-03T15:24:56.685Z,101806.31
2023-04-03T15:27:24.378Z,101807.38
2023-04-03T15:29:52.094Z,101800.84
2023-04-03T15:32:19.942Z,101797.88
2023-04-03T15:34:49.204Z,101798.34
2023-04-03T15:37:16.978Z,101803.09
2023-04-03T15:39:44.698Z,101791.66
2023-04-03T15:42:13.588Z,101800.91
2023-04-03T15:44:41.359Z,101784.63
2023-04-03T15:47:09.303Z,101798.84
2023-04-03T15:49:37.616Z,101794.09
2023-04-03T15:52:06.669Z,101780.97
2023-04-03T15:54:34.402Z,101783.78
2023-04-03T15:57:02.187Z,101785.97
2023-04-03T15:59:31.735Z,101779.91
2023-04-03T16:02:02.023Z,101779.91
2023-04-03T16:04:30.596Z,101772.38
2023-04-03T16:07:08.601Z,101766.94
2023-04-03T16:09:38.426Z,101761.88
2023-04-03T16:12:06.146Z,101755.47
2023-04-03T16:17:02.562Z,101758.47
2023-04-03T16:19:31.764Z,101757.81
2023-04-03T16:21:59.805Z,101750.53
2023-04-03T16:24:28.965Z,101752.28
2023-04-03T16:26:56.720Z,101740.91
2023-04-03T16:29:24.400Z,101748.56
2023-04-03T16:31:52.949Z,101752.38
2023-04-03T16:34:21.010Z,101752.47
2023-04-03T16:36:48.750Z,101759.22
2023-04-03T16:39:16.863Z,101756.69
2023-04-03T16:41:46.340Z,101757.88
2023-04-03T16:44:14.673Z,101759.97
2023-04-03T16:46:42.521Z,101759.28
2023-04-03T16:49:10.504Z,101755.09
2023-04-03T16:51:38.389Z,101756.78
2023-04-03T16:54:07.509Z,101756.38
2023-04-03T16:56:35.356Z,101755.75
2023-04-03T16:59:04.595Z,101754.69
2023-04-03T17:01:32.621Z,101750.78
2023-04-03T17:04:00.423Z,101759.59
2023-04-03T17:06:28.219Z,101755.91
2023-04-03T17:08:56.016Z,101760.91
2023-04-03T17:11:24.183Z,101758.63
2023-04-03T17:13:51.871Z,101755.50
2023-04-03T17:16:21.418Z,101753.88
2023-04-03T17:18:50.074Z,101754.31
2023-04-03T17:21:18.783Z,101751.78
2023-04-03T17:23:49.195Z,101747.31
2023-04-03T17:26:17.099Z,101753.09
2023-04-03T17:28:45.669Z,101755.06
2023-04-03T17:31:14.612Z,101763.16
2023-04-03T17:33:43.784Z,101759.09
2023-04-03T17:36:12.089Z,101759.84
2023-04-03T17:38:40.151Z,101753.03
2023-04-03T17:41:09.739Z,101756.97
2023-04-03T17:43:37.631Z,101755.97
2023-04-03T17:46:08.992Z,101759.53
2023-04-03T17:48:39.024Z,101743.69
2023-04-03T17:51:09.162Z,101746.81
2023-04-03T17:53:36.956Z,101755.03
2023-04-03T17:56:07.559Z,101748.84
2023-04-03T17:58:35.582Z,101745.97
2023-04-03T18:01:10.140Z,101746.06
2023-04-03T18:03:38.066Z,101744.25
2023-04-03T18:06:06.994Z,101743.00
2023-04-03T18:08:39.899Z,101744.41
2023-04-03T18:11:08.274Z,101742.56
2023-04-03T18:13:37.685Z,101749.44
2023-04-03T18:16:06.408Z,101752.38
2023-04-03T18:18:34.507Z,101744.03
2023-04-03T18:21:02.387Z,101748.25
2023-04-03T18:23:33.310Z,101748.63
2023-04-03T18:26:04.148Z,101749.78
2023-04-03T18:28:32.969Z,101747.53
2023-04-03T18:31:01.842Z,101746.38
2023-04-03T18:33:29.696Z,101755.50
2023-04-03T18:35:57.442Z,101749.00
2023-04-03T18:38:25.416Z,101754.19
2023-04-03T18:40:54.044Z,101754.75
2023-04-03T18:43:23.416Z,101754.03
2023-04-03T18:45:51.267Z,101753.09
2023-04-03T18:48:20.204Z,101758.00
2023-04-03T18:50:48.194Z,101763.91
2023-04-03T18:53:16.019Z,101761.44
2023-04-03T18:55:43.821Z,101768.19
2023-04-03T18:58:11.531Z,101764.00
2023-04-03T19:00:42.413Z,101764.63
2023-04-03T19:03:12.718Z,101766.56
2023-04-03T19:05:40.794Z,101770.03
2023-04-03T19:08:08.877Z,101760.81
2023-04-03T19:10:36.940Z,101760.56
2023-04-03T19:13:04.757Z,101764.63
2023-04-03T19:15:32.919Z,101766.75
2023-04-03T19:18:02.158Z,101777.66
2023-04-03T19:20:30.191Z,101760.50
2023-04-03T19:22:57.975Z,101772.09
2023-04-03T19:25:25.731Z,101771.03
2023-04-03T19:27:54.631Z,101775.91
2023-04-03T19:30:22.632Z,101772.75
2023-04-03T19:32:50.650Z,101780.84
2023-04-03T19:35:19.849Z,101786.03
2023-04-03T19:37:50.766Z,101786.03
2023-04-03T19:40:18.915Z,101788.81
2023-04-03T19:42:46.613Z,101791.06
2023-04-03T19:45:14.970Z,101792.63
2023-04-03T19:47:43.000Z,101794.63
2023-04-03T19:50:11.846Z,101801.75
2023-04-03T19:52:41.038Z,101798.22
2023-04-03T19:55:09.611Z,101798.94
2023-04-03T19:57:37.567Z,101793.63
2023-04-03T20:00:06.076Z,101793.63
2023-04-03T20:02:33.862Z,101795.66
2023-04-03T20:05:01.803Z,101800.56
2023-04-03T20:07:29.584Z,101805.56
2023-04-03T20:09:58.706Z,101806.34
2023-04-03T20:12:26.472Z,101812.13
2023-04-03T20:14:54.283Z,101813.31
2023-04-03T20:17:21.999Z,101821.09
2023-04-03T20:19:50.957Z,101820.34
2023-04-03T20:22:18.714Z,101823.66
2023-04-03T20:24:46.447Z,101825.75
2023-04-03T20:27:16.453Z,101817.38
2023-04-03T20:29:44.588Z,101819.16
2023-04-03T20:32:14.897Z,101819.66
2023-04-03T20:34:42.807Z,101824.75
2023-04-03T20:37:12.431Z,101816.56
2023-04-03T20:39:40.825Z,101827.59
2023-04-03T20:42:09.248Z,101820.19
2023-04-03T20:44:38.543Z,101824.34
2023-04-03T20:47:06.682Z,101826.44
2023-04-03T20:49:34.632Z,101835.44
2023-04-03T20:52:02.383Z,101835.41
2023-04-03T20:54:30.147Z,101844.13
2023-04-03T20:56:57.901Z,101837.44
2023-04-03T20:59:25.892Z,101840.63
2023-04-03T21:01:55.011Z,101838.34
2023-04-03T21:04:26.577Z,101841.16
2023-04-03T21:07:31.711Z,101840.72
2023-04-03T21:10:37.276Z,101852.94
2023-04-03T21:13:42.344Z,101846.44
2023-04-03T21:16:09.842Z,101841.88
2023-04-03T21:19:07.033Z,101846.34
2023-04-03T21:21:37.388Z,101856.72
2023-04-03T21:24:09.948Z,101865.94
2023-04-03T21:26:39.472Z,101851.84
2023-04-03T21:29:08.231Z,101854.84
2023-04-03T21:31:54.425Z,101845.31
2023-04-03T21:34:25.878Z,101848.59
2023-04-03T21:36:53.871Z,101848.31
2023-04-03T21:39:23.099Z,101851.97
2023-04-03T21:41:51.811Z,101852.28
2023-04-03T21:44:19.953Z,101860.50
2023-04-03T21:46:48.715Z,101858.97
2023-04-03T21:49:17.136Z,101851.19
2023-04-03T21:51:46.297Z,101853.00
2023-04-03T21:54:14.010Z,101846.34
2023-04-03T21:56:41.707Z,101851.69
2023-04-03T21:59:09.526Z,101850.44
2023-04-03T22:01:37.665Z,101852.78
2023-04-03T22:04:05.792Z,101848.59
2023-04-03T22:06:33.671Z,101851.84
2023-04-03T22:09:03.889Z,101845.28
2023-04-03T22:11:31.673Z,101848.72
2023-04-03T22:13:59.808Z,101849.13
2023-04-03T22:16:27.683Z,101854.22
2023-04-03T22:18:59.103Z,101853.66
2023-04-03T22:21:27.125Z,101860.97
2023-04-03T22:23:55.578Z,101864.09
2023-04-03T22:26:24.685Z,101867.69
2023-04-03T22:28:52.408Z,101860.38
2023-04-03T22:31:21.000Z,101862.28
2023-04-03T22:33:48.799Z,101857.75
2023-04-03T22:36:16.640Z,101868.63
2023-04-03T22:38:44.768Z,101862.19
2023-04-03T22:41:12.797Z,101871.34
2023-04-03T22:43:42.581Z,101871.41
2023-04-03T22:46:11.333Z,101860.59
2023-04-03T22:48:42.473Z,101867.53
2023-04-03T22:51:10.440Z,101862.81
2023-04-03T22:53:38.633Z,101864.50
2023-04-03T22:56:10.571Z,101867.06
2023-04-03T22:58:38.948Z,101865.38
2023-04-03T23:01:11.348Z,101871.44
2023-04-03T23:03:40.708Z,101878.22
2023-04-03T23:06:09.471Z,101877.44
2023-04-03T23:08:39.033Z,101865.91
2023-04-03T23:11:09.259Z,101868.91
2023-04-03T23:13:37.382Z,101859.91
2023-04-03T23:16:06.784Z,101864.78
2023-04-03T23:18:39.723Z,101874.16
2023-04-03T23:21:08.404Z,101868.63
2023-04-03T23:23:36.118Z,101881.91
2023-04-03T23:26:04.064Z,101872.13
2023-04-03T23:28:31.906Z,101876.47
2023-04-03T23:31:01.726Z,101869.75
2023-04-03T23:33:30.359Z,101862.38
2023-04-03T23:36:00.789Z,101871.03
2023-04-03T23:38:29.503Z,101875.22
2023-04-03T23:40:57.329Z,101871.31
2023-04-03T23:43:25.153Z,101873.09
2023-04-03T23:45:52.893Z,101879.34
2023-04-03T23:48:20.788Z,101874.88
2023-04-03T23:50:48.579Z,101877.16
2023-04-03T23:53:18.405Z,101884.88
2023-04-03T23:55:46.247Z,101885.16
2023-04-03T23:58:14.091Z,101894.22
